Terminal Aerodrome Forecast
Issued by NWS La Crosse, WI

Home | Current Version | Previous Version | Text Only | Print | Product List | Glossary On
Versions: 1 2 3 4 5 6 7 8 9 10 11 12 13 14 15 16 17 18 19 20 21 22
000
FTUS43 KARX 250401 AAA
TAFRST
TAF AMD
KRST 250401Z 2504/2524 13011KT P6SM OVC008 WS020/19046KT
     FM250800 16011KT P6SM VCSH OVC120
      TEMPO 2508/2512 6SM SHRA BR OVC030
     FM251300 20013KT P6SM BKN090
     FM251600 23013KT P6SM SCT200
     FM251900 27013G24KT P6SM BKN190
     FM252200 28013G25KT P6SM BKN040=

USA.gov is the U.S. government's official web portal to all federal, state and local government web resources and services.